sensor_id;sensor_type;location;lat;lon;timestamp;pressure;altitude;pressure_sealevel;temperature;humidity
75936;BME280;64614;32.062;34.834;2023-03-01T00:01:14;101054.81;;;24.27;35.49
75936;BME280;64614;32.062;34.834;2023-03-01T00:03:42;101054.81;;;24.27;35.39
75936;BME280;64614;32.062;34.834;2023-03-01T00:06:07;101057.56;;;24.27;35.69
75936;BME280;64614;32.062;34.834;2023-03-01T00:08:33;101051.28;;;24.26;35.65
75936;BME280;64614;32.062;34.834;2023-03-01T00:13:34;101050.94;;;24.28;35.36
75936;BME280;64614;32.062;34.834;2023-03-01T00:16:06;101045.47;;;24.28;35.37
75936;BME280;64614;32.062;34.834;2023-03-01T00:18:32;101050.16;;;24.27;35.26
75936;BME280;64614;32.062;34.834;2023-03-01T00:20:58;101049.31;;;24.27;35.49
75936;BME280;64614;32.062;34.834;2023-03-01T00:23:24;101038.34;;;24.27;35.60
75936;BME280;64614;32.062;34.834;2023-03-01T00:25:50;101043.03;;;24.26;35.31
75936;BME280;64614;32.062;34.834;2023-03-01T00:28:18;101042.53;;;24.24;35.38
75936;BME280;64614;32.062;34.834;2023-03-01T00:30:44;101035.09;;;24.24;35.38
75936;BME280;64614;32.062;34.834;2023-03-01T00:33:10;101042.22;;;24.25;35.29
75936;BME280;64614;32.062;34.834;2023-03-01T00:35:36;101028.81;;;24.24;35.18
75936;BME280;64614;32.062;34.834;2023-03-01T00:38:02;101032.06;;;24.26;34.97
75936;BME280;64614;32.062;34.834;2023-03-01T00:40:32;101035.94;;;24.25;35.32
75936;BME280;64614;32.062;34.834;2023-03-01T00:42:58;101032.06;;;24.26;35.00
75936;BME280;64614;32.062;34.834;2023-03-01T00:45:24;101037.56;;;24.26;35.24
75936;BME280;64614;32.062;34.834;2023-03-01T00:47:51;101028.19;;;24.27;35.19
75936;BME280;64614;32.062;34.834;2023-03-01T00:50:19;101023.50;;;24.28;34.93
75936;BME280;64614;32.062;34.834;2023-03-01T00:52:46;101035.31;;;24.28;35.25
75936;BME280;64614;32.062;34.834;2023-03-01T00:55:12;101033.03;;;24.30;35.23
75936;BME280;64614;32.062;34.834;2023-03-01T00:57:39;101037.13;;;24.33;35.59
75936;BME280;64614;32.062;34.834;2023-03-01T01:00:06;101029.34;;;24.35;35.46
75936;BME280;64614;32.062;34.834;2023-03-01T01:02:33;101029.16;;;24.31;35.39
75936;BME280;64614;32.062;34.834;2023-03-01T01:05:01;101025.94;;;24.29;35.40
75936;BME280;64614;32.062;34.834;2023-03-01T01:07:26;101025.31;;;24.32;35.52
75936;BME280;64614;32.062;34.834;2023-03-01T01:12:20;101019.03;;;24.32;35.41
75936;BME280;64614;32.062;34.834;2023-03-01T01:14:48;101026.44;;;24.31;35.32
75936;BME280;64614;32.062;34.834;2023-03-01T01:17:13;101027.25;;;24.32;35.49
75936;BME280;64614;32.062;34.834;2023-03-01T01:19:40;101029.16;;;24.31;35.57
75936;BME280;64614;32.062;34.834;2023-03-01T01:22:07;101028.66;;;24.29;35.31
75936;BME280;64614;32.062;34.834;2023-03-01T01:24:32;101029.16;;;24.31;35.24
75936;BME280;64614;32.062;34.834;2023-03-01T01:26:58;101020.13;;;24.31;35.36
75936;BME280;64614;32.062;34.834;2023-03-01T01:29:24;101026.59;;;24.35;35.13
75936;BME280;64614;32.062;34.834;2023-03-01T01:31:50;101017.91;;;24.33;35.33
75936;BME280;64614;32.062;34.834;2023-03-01T01:34:18;101022.06;;;24.30;35.14
75936;BME280;64614;32.062;34.834;2023-03-01T01:36:51;101019.31;;;24.30;35.05
75936;BME280;64614;32.062;34.834;2023-03-01T01:39:21;101012.69;;;24.31;35.42
75936;BME280;64614;32.062;34.834;2023-03-01T01:41:47;101019.63;;;24.29;35.45
75936;BME280;64614;32.062;34.834;2023-03-01T01:44:25;101020.44;;;24.29;35.54
75936;BME280;64614;32.062;34.834;2023-03-01T01:46:58;101019.63;;;24.29;35.71
75936;BME280;64614;32.062;34.834;2023-03-01T01:49:44;101019.31;;;24.30;35.27
75936;BME280;64614;32.062;34.834;2023-03-01T01:52:20;101019.31;;;24.30;35.17
75936;BME280;64614;32.062;34.834;2023-03-01T01:57:30;101025.31;;;24.32;35.47
75936;BME280;64614;32.062;34.834;2023-03-01T02:00:03;101013.53;;;24.32;35.66
75936;BME280;64614;32.062;34.834;2023-03-01T02:02:30;101015.94;;;24.33;35.45
75936;BME280;64614;32.062;34.834;2023-03-01T02:05:05;101012.09;;;24.34;35.51
75936;BME280;64614;32.062;34.834;2023-03-01T02:07:37;101010.47;;;24.33;35.60
75936;BME280;64614;32.062;34.834;2023-03-01T02:10:04;101015.94;;;24.33;35.38
75936;BME280;64614;32.062;34.834;2023-03-01T02:12:30;101014.31;;;24.32;35.69
75936;BME280;64614;32.062;34.834;2023-03-01T02:14:56;101013.53;;;24.32;35.54
75936;BME280;64614;32.062;34.834;2023-03-01T02:17:22;101011.59;;;24.32;35.41
75936;BME280;64614;32.062;34.834;2023-03-01T02:20:15;101021.44;;;24.33;35.39
75936;BME280;64614;32.062;34.834;2023-03-01T02:22:37;101013.53;;;24.32;35.47
75936;BME280;64614;32.062;34.834;2023-03-01T02:25:34;101014.31;;;24.32;35.80
75936;BME280;64614;32.062;34.834;2023-03-01T02:30:37;101011.06;;;24.30;35.65
75936;BME280;64614;32.062;34.834;2023-03-01T02:33:24;101012.69;;;24.31;35.50
75936;BME280;64614;32.062;34.834;2023-03-01T02:35:50;101023.19;;;24.29;35.85
75936;BME280;64614;32.062;34.834;2023-03-01T02:40:49;101025.63;;;24.31;35.54
75936;BME280;64614;32.062;34.834;2023-03-01T02:43:17;101024.00;;;24.30;35.54
75936;BME280;64614;32.062;34.834;2023-03-01T02:45:50;101025.94;;;24.29;35.33
75936;BME280;64614;32.062;34.834;2023-03-01T02:48:17;101018.84;;;24.28;35.63
75936;BME280;64614;32.062;34.834;2023-03-01T02:51:10;101027.53;;;24.30;35.42
75936;BME280;64614;32.062;34.834;2023-03-01T02:56:35;101025.94;;;24.29;35.78
75936;BME280;64614;32.062;34.834;2023-03-01T02:59:01;101027.06;;;24.28;35.67
75936;BME280;64614;32.062;34.834;2023-03-01T03:01:29;101028.19;;;24.27;35.25
75936;BME280;64614;32.062;34.834;2023-03-01T03:04:03;101028.19;;;24.27;35.25
75936;BME280;64614;32.062;34.834;2023-03-01T03:06:29;101032.84;;;24.27;35.65
75936;BME280;64614;32.062;34.834;2023-03-01T03:08:54;101034.81;;;24.26;35.24
75936;BME280;64614;32.062;34.834;2023-03-01T03:11:20;101028.19;;;24.27;35.25
75936;BME280;64614;32.062;34.834;2023-03-01T03:13:46;101034.81;;;24.26;35.68
75936;BME280;64614;32.062;34.834;2023-03-01T03:16:14;101041.09;;;24.27;35.53
75936;BME280;64614;32.062;34.834;2023-03-01T03:21:09;101037.22;;;24.28;35.46
75936;BME280;64614;32.062;34.834;2023-03-01T03:23:36;101028.19;;;24.27;35.24
75936;BME280;64614;32.062;34.834;2023-03-01T03:26:02;101038.34;;;24.27;35.16
75936;BME280;64614;32.062;34.834;2023-03-01T03:31:03;101035.94;;;24.25;35.46
75936;BME280;64614;32.062;34.834;2023-03-01T03:33:37;101041.41;;;24.25;35.26
75936;BME280;64614;32.062;34.834;2023-03-01T03:36:04;101039.78;;;24.24;35.43
75936;BME280;64614;32.062;34.834;2023-03-01T03:41:07;101043.66;;;24.23;35.46
75936;BME280;64614;32.062;34.834;2023-03-01T03:43:36;101047.69;;;24.25;35.40
75936;BME280;64614;32.062;34.834;2023-03-01T03:46:03;101050.16;;;24.27;35.53
75936;BME280;64614;32.062;34.834;2023-03-01T03:48:34;101054.00;;;24.26;35.48
75936;BME280;64614;32.062;34.834;2023-03-01T03:53:30;101058.38;;;24.27;35.65
75936;BME280;64614;32.062;34.834;2023-03-01T03:58:32;101058.06;;;24.29;35.31
75936;BME280;64614;32.062;34.834;2023-03-01T04:03:34;101065.19;;;24.30;35.69
75936;BME280;64614;32.062;34.834;2023-03-01T04:06:01;101065.97;;;24.30;35.50
75936;BME280;64614;32.062;34.834;2023-03-01T04:08:27;101067.59;;;24.31;35.45
75936;BME280;64614;32.062;34.834;2023-03-01T04:11:02;101067.59;;;24.31;35.47
75936;BME280;64614;32.062;34.834;2023-03-01T04:13:46;101066.66;;;24.36;35.48
75936;BME280;64614;32.062;34.834;2023-03-01T04:16:12;101072.47;;;24.34;35.66
75936;BME280;64614;32.062;34.834;2023-03-01T04:21:10;101070.53;;;24.35;35.58
75936;BME280;64614;32.062;34.834;2023-03-01T04:23:36;101070.53;;;24.35;35.59
75936;BME280;64614;32.062;34.834;2023-03-01T04:26:03;101072.66;;;24.38;35.90
75936;BME280;64614;32.062;34.834;2023-03-01T04:33:46;101070.78;;;24.56;36.63
75936;BME280;64614;32.062;34.834;2023-03-01T04:36:15;101075.84;;;24.63;36.40
75936;BME280;64614;32.062;34.834;2023-03-01T04:38:43;101077.84;;;24.71;36.73
75936;BME280;64614;32.062;34.834;2023-03-01T04:46:48;101079.38;;;24.95;36.50
75936;BME280;64614;32.062;34.834;2023-03-01T04:49:22;101066.31;;;25.00;36.82
75936;BME280;64614;32.062;34.834;2023-03-01T04:51:48;101078.03;;;25.15;36.44
75936;BME280;64614;32.062;34.834;2023-03-01T04:54:14;101075.63;;;25.22;35.89
75936;BME280;64614;32.062;34.834;2023-03-01T04:59:16;101078.59;;;25.43;35.26
75936;BME280;64614;32.062;34.834;2023-03-01T05:01:42;101075.19;;;25.55;34.80
75936;BME280;64614;32.062;34.834;2023-03-01T05:09:18;101072.31;;;25.87;33.88
75936;BME280;64614;32.062;34.834;2023-03-01T05:14:19;101090.59;;;26.09;33.68
75936;BME280;64614;32.062;34.834;2023-03-01T05:16:45;101085.25;;;26.21;33.16
75936;BME280;64614;32.062;34.834;2023-03-01T05:19:12;101083.44;;;26.34;33.30
75936;BME280;64614;32.062;34.834;2023-03-01T05:21:42;101091.81;;;26.47;33.26
75936;BME280;64614;32.062;34.834;2023-03-01T05:24:26;101091.78;;;26.64;33.14
75936;BME280;64614;32.062;34.834;2023-03-01T05:26:52;101098.25;;;26.77;32.94
75936;BME280;64614;32.062;34.834;2023-03-01T05:29:21;101096.41;;;26.90;32.81
75936;BME280;64614;32.062;34.834;2023-03-01T05:31:58;101098.47;;;27.02;32.75
75936;BME280;64614;32.062;34.834;2023-03-01T05:34:34;101102.47;;;27.13;33.09
75936;BME280;64614;32.062;34.834;2023-03-01T05:37:05;101098.84;;;27.21;32.54
75936;BME280;64614;32.062;34.834;2023-03-01T05:39:33;101107.75;;;27.27;32.37
75936;BME280;64614;32.062;34.834;2023-03-01T05:42:00;101109.97;;;27.34;33.17
75936;BME280;64614;32.062;34.834;2023-03-01T05:44:29;101110.59;;;27.40;32.63
75936;BME280;64614;32.062;34.834;2023-03-01T05:47:01;101114.00;;;27.45;32.89
75936;BME280;64614;32.062;34.834;2023-03-01T05:57:54;101119.78;;;27.52;32.86
75936;BME280;64614;32.062;34.834;2023-03-01T06:00:21;101115.91;;;27.54;32.54
75936;BME280;64614;32.062;34.834;2023-03-01T06:02:48;101123.03;;;27.55;32.55
75936;BME280;64614;32.062;34.834;2023-03-01T06:05:17;101121.41;;;27.54;32.64
75936;BME280;64614;32.062;34.834;2023-03-01T06:07:43;101126.94;;;27.54;32.35
75936;BME280;64614;32.062;34.834;2023-03-01T06:10:09;101124.03;;;27.50;32.56
75936;BME280;64614;32.062;34.834;2023-03-01T06:12:37;101131.47;;;27.49;32.82
75936;BME280;64614;32.062;34.834;2023-03-01T06:17:30;101132.97;;;27.47;33.03
75936;BME280;64614;32.062;34.834;2023-03-01T06:19:56;101130.22;;;27.47;32.58
75936;BME280;64614;32.062;34.834;2023-03-01T06:24:55;101127.78;;;27.45;33.18
75936;BME280;64614;32.062;34.834;2023-03-01T06:29:56;101131.69;;;27.44;33.22
75936;BME280;64614;32.062;34.834;2023-03-01T06:32:22;101128.94;;;27.44;33.25
75936;BME280;64614;32.062;34.834;2023-03-01T06:34:51;101126.50;;;27.43;33.20
75936;BME280;64614;32.062;34.834;2023-03-01T06:37:16;101124.22;;;27.45;33.73
75936;BME280;64614;32.062;34.834;2023-03-01T06:39:51;101120.16;;;27.42;33.24
75936;BME280;64614;32.062;34.834;2023-03-01T06:42:16;101128.09;;;27.44;33.15
75936;BME280;64614;32.062;34.834;2023-03-01T06:44:43;101132.31;;;27.41;33.11
75936;BME280;64614;32.062;34.834;2023-03-01T06:52:14;101123.13;;;27.37;33.35
75936;BME280;64614;32.062;34.834;2023-03-01T06:55:05;101122.91;;;27.42;33.74
75936;BME280;64614;32.062;34.834;2023-03-01T07:05:14;101113.00;;;27.41;33.67
75936;BME280;64614;32.062;34.834;2023-03-01T07:07:39;101118.53;;;27.41;33.42
75936;BME280;64614;32.062;34.834;2023-03-01T07:10:06;101106.69;;;27.41;33.35
75936;BME280;64614;32.062;34.834;2023-03-01T07:12:32;101122.41;;;27.40;34.04
75936;BME280;64614;32.062;34.834;2023-03-01T07:15:01;101112.53;;;27.39;33.71
75936;BME280;64614;32.062;34.834;2023-03-01T07:17:27;101115.28;;;27.39;33.98
75936;BME280;64614;32.062;34.834;2023-03-01T07:19:53;101113.66;;;27.38;33.78
75936;BME280;64614;32.062;34.834;2023-03-01T07:22:19;101112.06;;;27.37;33.90
75936;BME280;64614;32.062;34.834;2023-03-01T07:24:46;101113.53;;;27.34;33.64
75936;BME280;64614;32.062;34.834;2023-03-01T07:27:13;101109.50;;;27.32;33.37
75936;BME280;64614;32.062;34.834;2023-03-01T07:29:38;101102.38;;;27.31;33.73
75936;BME280;64614;32.062;34.834;2023-03-01T07:32:06;101103.03;;;27.28;33.63
75936;BME280;64614;32.062;34.834;2023-03-01T07:34:33;101109.69;;;27.27;33.58
75936;BME280;64614;32.062;34.834;2023-03-01T07:36:59;101109.22;;;27.25;33.61
75936;BME280;64614;32.062;34.834;2023-03-01T07:39:26;101100.81;;;27.21;33.66
75936;BME280;64614;32.062;34.834;2023-03-01T07:44:27;101095.47;;;27.16;34.00
75936;BME280;64614;32.062;34.834;2023-03-01T07:46:53;101089.81;;;27.12;33.61
75936;BME280;64614;32.062;34.834;2023-03-01T07:51:49;101093.56;;;27.08;33.91
75936;BME280;64614;32.062;34.834;2023-03-01T07:54:15;101091.16;;;27.06;33.46
75936;BME280;64614;32.062;34.834;2023-03-01T07:56:40;101087.13;;;27.03;33.64
75936;BME280;64614;32.062;34.834;2023-03-01T07:59:06;101076.75;;;27.00;34.07
75936;BME280;64614;32.062;34.834;2023-03-01T08:01:32;101079.84;;;26.99;33.84
75936;BME280;64614;32.062;34.834;2023-03-01T08:03:59;101083.25;;;26.96;33.64
75936;BME280;64614;32.062;34.834;2023-03-01T08:06:25;101079.22;;;26.93;33.63
75936;BME280;64614;32.062;34.834;2023-03-01T08:11:26;101072.28;;;26.87;33.85
75936;BME280;64614;32.062;34.834;2023-03-01T08:13:53;101072.94;;;26.84;33.86
75936;BME280;64614;32.062;34.834;2023-03-01T08:21:29;101075.06;;;26.78;33.62
75936;BME280;64614;32.062;34.834;2023-03-01T08:23:55;101070.22;;;26.75;34.00
75936;BME280;64614;32.062;34.834;2023-03-01T08:34:54;101065.84;;;26.65;33.98
75936;BME280;64614;32.062;34.834;2023-03-01T08:39:56;101079.13;;;26.63;33.81
75936;BME280;64614;32.062;34.834;2023-03-01T08:42:21;101081.44;;;26.61;34.13
75936;BME280;64614;32.062;34.834;2023-03-01T08:44:48;101073.03;;;26.57;34.22
75936;BME280;64614;32.062;34.834;2023-03-01T08:47:14;101077.72;;;26.57;34.08
75936;BME280;64614;32.062;34.834;2023-03-01T08:49:40;101076.09;;;26.56;33.96
75936;BME280;64614;32.062;34.834;2023-03-01T08:52:05;101073.69;;;26.54;33.93
75936;BME280;64614;32.062;34.834;2023-03-01T08:54:31;101065.75;;;26.53;33.86
75936;BME280;64614;32.062;34.834;2023-03-01T08:56:57;101062.16;;;26.52;33.72
75936;BME280;64614;32.062;34.834;2023-03-01T09:01:59;101064.44;;;26.50;34.11
75936;BME280;64614;32.062;34.834;2023-03-01T09:04:25;101062.03;;;26.49;33.81
75936;BME280;64614;32.062;34.834;2023-03-01T09:09:16;101054.09;;;26.47;34.17
75936;BME280;64614;32.062;34.834;2023-03-01T09:11:45;101054.75;;;26.44;33.91
75936;BME280;64614;32.062;34.834;2023-03-01T09:14:13;101049.25;;;26.44;34.21
75936;BME280;64614;32.062;34.834;2023-03-01T09:16:38;101048.75;;;26.42;34.16
75936;BME280;64614;32.062;34.834;2023-03-01T09:19:05;101040.50;;;26.42;34.18
75936;BME280;64614;32.062;34.834;2023-03-01T09:21:30;101048.75;;;26.42;33.95
75936;BME280;64614;32.062;34.834;2023-03-01T09:23:57;101040.81;;;26.40;34.10
75936;BME280;64614;32.062;34.834;2023-03-01T09:26:25;101041.63;;;26.41;33.97
75936;BME280;64614;32.062;34.834;2023-03-01T09:28:53;101040.34;;;26.38;34.20
75936;BME280;64614;32.062;34.834;2023-03-01T09:31:20;101037.28;;;26.40;34.19
75936;BME280;64614;32.062;34.834;2023-03-01T09:33:48;101034.84;;;26.38;34.17
75936;BME280;64614;32.062;34.834;2023-03-01T09:36:18;101034.03;;;26.38;34.28
75936;BME280;64614;32.062;34.834;2023-03-01T09:38:44;101026.91;;;26.37;34.48
75936;BME280;64614;32.062;34.834;2023-03-01T09:46:40;101022.06;;;26.34;33.86
75936;BME280;64614;32.062;34.834;2023-03-01T09:49:29;101023.66;;;26.35;34.30
75936;BME280;64614;32.062;34.834;2023-03-01T09:54:55;101020.44;;;26.33;34.07
75936;BME280;64614;32.062;34.834;2023-03-01T09:57:38;101021.91;;;26.30;34.08
75936;BME280;64614;32.062;34.834;2023-03-01T10:00:24;101007.34;;;26.30;34.05
75936;BME280;64614;32.062;34.834;2023-03-01T10:03:06;101013.66;;;26.30;34.09
75936;BME280;64614;32.062;34.834;2023-03-01T10:05:44;101015.91;;;26.28;33.84
75936;BME280;64614;32.062;34.834;2023-03-01T10:08:36;101006.84;;;26.27;34.25
75936;BME280;64614;32.062;34.834;2023-03-01T10:11:17;100999.72;;;26.26;34.02
75936;BME280;64614;32.062;34.834;2023-03-01T10:14:04;101010.75;;;26.26;34.34
75936;BME280;64614;32.062;34.834;2023-03-01T10:16:41;101002.00;;;26.24;34.20
75936;BME280;64614;32.062;34.834;2023-03-01T10:19:14;101000.38;;;26.23;34.16
75936;BME280;64614;32.062;34.834;2023-03-01T10:21:46;100998.78;;;26.22;33.94
75936;BME280;64614;32.062;34.834;2023-03-01T10:24:17;100990.84;;;26.21;33.92
75936;BME280;64614;32.062;34.834;2023-03-01T10:26:57;100991.66;;;26.21;34.29
75936;BME280;64614;32.062;34.834;2023-03-01T10:29:30;100986.16;;;26.21;34.24
75936;BME280;64614;32.062;34.834;2023-03-01T10:31:57;100997.47;;;26.20;34.18
75936;BME280;64614;32.062;34.834;2023-03-01T10:34:33;100988.41;;;26.19;33.75
75936;BME280;64614;32.062;34.834;2023-03-01T10:37:18;100981.31;;;26.18;34.26
75936;BME280;64614;32.062;34.834;2023-03-01T10:42:28;100989.56;;;26.18;34.13
75936;BME280;64614;32.062;34.834;2023-03-01T10:44:58;100973.38;;;26.17;34.07
75936;BME280;64614;32.062;34.834;2023-03-01T10:47:40;100978.88;;;26.17;34.00
75936;BME280;64614;32.062;34.834;2023-03-01T10:50:25;100975.31;;;26.16;34.46
75936;BME280;64614;32.062;34.834;2023-03-01T10:53:02;100972.56;;;26.16;34.40
75936;BME280;64614;32.062;34.834;2023-03-01T10:56:07;100972.56;;;26.16;34.09
75936;BME280;64614;32.062;34.834;2023-03-01T10:58:38;100974.81;;;26.14;34.10
75936;BME280;64614;32.062;34.834;2023-03-01T11:01:24;100976.78;;;26.14;34.35
75936;BME280;64614;32.062;34.834;2023-03-01T11:04:11;100963.81;;;26.14;34.32
75936;BME280;64614;32.062;34.834;2023-03-01T11:06:40;100967.72;;;26.13;33.96
75936;BME280;64614;32.062;34.834;2023-03-01T11:09:21;100955.09;;;26.12;34.41
75936;BME280;64614;32.062;34.834;2023-03-01T11:11:57;100966.09;;;26.12;34.34
75936;BME280;64614;32.062;34.834;2023-03-01T11:14:29;100961.72;;;26.11;34.11
75936;BME280;64614;32.062;34.834;2023-03-01T11:17:05;100958.97;;;26.11;34.48
75936;BME280;64614;32.062;34.834;2023-03-01T11:19:37;100957.38;;;26.10;34.22
75936;BME280;64614;32.062;34.834;2023-03-01T11:22:12;100951.84;;;26.10;34.18
75936;BME280;64614;32.062;34.834;2023-03-01T11:24:45;100954.59;;;26.10;34.26
75936;BME280;64614;32.062;34.834;2023-03-01T11:27:21;100949.09;;;26.10;34.26
75936;BME280;64614;32.062;34.834;2023-03-01T12:08:41;100931.59;;;26.06;34.19
75936;BME280;64614;32.062;34.834;2023-03-01T12:37:53;100909.25;;;26.07;34.31
75936;BME280;64614;32.062;34.834;2023-03-01T12:48:26;100916.41;;;26.08;34.65
75936;BME280;64614;32.062;34.834;2023-03-01T12:51:08;100910.06;;;26.08;34.45
75936;BME280;64614;32.062;34.834;2023-03-01T12:53:41;100907.66;;;26.06;34.61
75936;BME280;64614;32.062;34.834;2023-03-01T12:56:21;100902.13;;;26.06;34.58
75936;BME280;64614;32.062;34.834;2023-03-01T13:01:51;100904.41;;;26.04;34.27
75936;BME280;64614;32.062;34.834;2023-03-01T13:07:34;100898.09;;;26.04;34.36
75936;BME280;64614;32.062;34.834;2023-03-01T13:13:10;100897.63;;;26.02;34.45
75936;BME280;64614;32.062;34.834;2023-03-01T13:15:38;100899.56;;;26.01;34.12
75936;BME280;64614;32.062;34.834;2023-03-01T13:20:55;100903.78;;;25.99;34.18
75936;BME280;64614;32.062;34.834;2023-03-01T13:31:03;100897.78;;;25.96;34.31
75936;BME280;64614;32.062;34.834;2023-03-01T13:35:57;100895.03;;;25.96;34.38
75936;BME280;64614;32.062;34.834;2023-03-01T13:44:29;100891.50;;;25.96;34.47
75936;BME280;64614;32.062;34.834;2023-03-01T13:49:27;100896.84;;;25.92;34.43
75936;BME280;64614;32.062;34.834;2023-03-01T13:51:54;100893.28;;;25.92;34.39
75936;BME280;64614;32.062;34.834;2023-03-01T13:54:31;100892.97;;;25.93;34.54
75936;BME280;64614;32.062;34.834;2023-03-01T13:56:59;100886.19;;;25.91;34.45
75936;BME280;64614;32.062;34.834;2023-03-01T13:59:26;100895.22;;;25.91;34.40
75936;BME280;64614;32.062;34.834;2023-03-01T14:01:57;100894.44;;;25.91;34.43
75936;BME280;64614;32.062;34.834;2023-03-01T14:04:25;100888.09;;;25.90;34.32
75936;BME280;64614;32.062;34.834;2023-03-01T14:07:18;100893.59;;;25.90;34.47
75936;BME280;64614;32.062;34.834;2023-03-01T14:09:47;100888.09;;;25.90;34.36
75936;BME280;64614;32.062;34.834;2023-03-01T14:15:04;100890.38;;;25.88;34.51
75936;BME280;64614;32.062;34.834;2023-03-01T14:20:20;100878.91;;;25.86;34.34
75936;BME280;64614;32.062;34.834;2023-03-01T14:22:48;100884.72;;;25.85;34.36
75936;BME280;64614;32.062;34.834;2023-03-01T14:25:35;100892.66;;;25.86;34.31
75936;BME280;64614;32.062;34.834;2023-03-01T14:28:23;100891.84;;;25.86;34.23
75936;BME280;64614;32.062;34.834;2023-03-01T14:30:58;100895.41;;;25.86;34.33
75936;BME280;64614;32.062;34.834;2023-03-01T14:33:26;100888.59;;;25.84;34.45
75936;BME280;64614;32.062;34.834;2023-03-01T14:38:33;100884.56;;;25.81;34.40
75936;BME280;64614;32.062;34.834;2023-03-01T14:41:07;100886.53;;;25.80;34.19
75936;BME280;64614;32.062;34.834;2023-03-01T14:43:34;100882.16;;;25.79;34.09
75936;BME280;64614;32.062;34.834;2023-03-01T14:46:01;100887.66;;;25.79;33.97
75936;BME280;64614;32.062;34.834;2023-03-01T14:48:27;100885.25;;;25.78;34.15
75936;BME280;64614;32.062;34.834;2023-03-01T14:50:54;100891.88;;;25.77;33.83
75936;BME280;64614;32.062;34.834;2023-03-01T14:55:49;100887.50;;;25.76;34.05
75936;BME280;64614;32.062;34.834;2023-03-01T14:58:20;100896.56;;;25.76;34.21
75936;BME280;64614;32.062;34.834;2023-03-01T15:01:00;100893.03;;;25.76;34.24
75936;BME280;64614;32.062;34.834;2023-03-01T15:03:37;100899.16;;;25.73;34.36
75936;BME280;64614;32.062;34.834;2023-03-01T15:06:07;100900.28;;;25.72;34.15
75936;BME280;64614;32.062;34.834;2023-03-01T15:08:35;100896.75;;;25.71;34.22
75936;BME280;64614;32.062;34.834;2023-03-01T15:13:51;100903.38;;;25.70;34.23
75936;BME280;64614;32.062;34.834;2023-03-01T15:21:24;100892.56;;;25.65;34.10
75936;BME280;64614;32.062;34.834;2023-03-01T15:23:52;100894.00;;;25.62;34.04
75936;BME280;64614;32.062;34.834;2023-03-01T15:26:39;100899.03;;;25.60;34.05
75936;BME280;64614;32.062;34.834;2023-03-01T15:29:18;100898.22;;;25.60;33.94
75936;BME280;64614;32.062;34.834;2023-03-01T15:31:55;100903.22;;;25.58;33.84
75936;BME280;64614;32.062;34.834;2023-03-01T15:34:35;100904.69;;;25.55;33.99
75936;BME280;64614;32.062;34.834;2023-03-01T15:37:06;100903.09;;;25.54;33.87
75936;BME280;64614;32.062;34.834;2023-03-01T15:39:57;100899.84;;;25.52;34.00
75936;BME280;64614;32.062;34.834;2023-03-01T15:47:53;100907.47;;;25.46;33.52
75936;BME280;64614;32.062;34.834;2023-03-01T15:50:26;100908.28;;;25.47;33.34
75936;BME280;64614;32.062;34.834;2023-03-01T15:52:54;100907.78;;;25.45;33.11
75936;BME280;64614;32.062;34.834;2023-03-01T15:55:23;100906.16;;;25.44;33.49
75936;BME280;64614;32.062;34.834;2023-03-01T15:57:50;100904.56;;;25.43;33.36
75936;BME280;64614;32.062;34.834;2023-03-01T16:00:27;100918.63;;;25.41;33.32
75936;BME280;64614;32.062;34.834;2023-03-01T16:02:53;100913.13;;;25.41;33.40
75936;BME280;64614;32.062;34.834;2023-03-01T16:05:29;100917.84;;;25.41;33.26
75936;BME280;64614;32.062;34.834;2023-03-01T16:07:56;100912.94;;;25.38;33.20
75936;BME280;64614;32.062;34.834;2023-03-01T16:10:22;100922.31;;;25.37;33.15
75936;BME280;64614;32.062;34.834;2023-03-01T16:12:50;100918.78;;;25.36;33.18
75936;BME280;64614;32.062;34.834;2023-03-01T16:15:32;100915.09;;;25.41;33.25
75936;BME280;64614;32.062;34.834;2023-03-01T16:18:02;100918.44;;;25.38;32.95
75936;BME280;64614;32.062;34.834;2023-03-01T16:20:28;100914.06;;;25.37;33.19
75936;BME280;64614;32.062;34.834;2023-03-01T16:22:57;100914.56;;;25.39;33.19
75936;BME280;64614;32.062;34.834;2023-03-01T16:25:25;100917.31;;;25.39;33.39
75936;BME280;64614;32.062;34.834;2023-03-01T16:27:56;100910.72;;;25.40;33.34
75936;BME280;64614;32.062;34.834;2023-03-01T16:30:25;100918.97;;;25.40;33.54
75936;BME280;64614;32.062;34.834;2023-03-01T16:32:51;100917.00;;;25.40;33.49
75936;BME280;64614;32.062;34.834;2023-03-01T16:35:20;100920.59;;;25.41;33.67
75936;BME280;64614;32.062;34.834;2023-03-01T16:37:46;100918.13;;;25.39;33.48
75936;BME280;64614;32.062;34.834;2023-03-01T16:40:23;100922.19;;;25.42;33.60
75936;BME280;64614;32.062;34.834;2023-03-01T17:05:07;100946.63;;;25.43;34.04
75936;BME280;64614;32.062;34.834;2023-03-01T17:30:50;100975.25;;;25.51;34.32
75936;BME280;64614;32.062;34.834;2023-03-01T17:33:16;100975.25;;;25.51;34.22
75936;BME280;64614;32.062;34.834;2023-03-01T17:35:44;100979.28;;;25.54;34.28
75936;BME280;64614;32.062;34.834;2023-03-01T17:38:14;100988.81;;;25.56;34.33
75936;BME280;64614;32.062;34.834;2023-03-01T17:40:41;100986.22;;;25.60;34.04
75936;BME280;64614;32.062;34.834;2023-03-01T17:43:08;100974.09;;;25.61;34.14
75936;BME280;64614;32.062;34.834;2023-03-01T17:50:51;100978.81;;;25.60;34.34
75936;BME280;64614;32.062;34.834;2023-03-01T17:53:19;100976.06;;;25.60;34.34
75936;BME280;64614;32.062;34.834;2023-03-01T17:55:44;100974.91;;;25.61;34.36
75936;BME280;64614;32.062;34.834;2023-03-01T17:58:13;100974.91;;;25.61;34.48